Time;durP1;ratioP1;P1;durP2;ratioP2;P2;SDS_P1;SDS_P2;PMS_P1;PMS_P2;Temp;Humidity;BMP_temperature;BMP_pressure;BME280_temperature;BME280_humidity;BME280_pressure;Samples;Min_cycle;Max_cycle;Signal;HPM_P1;HPM_P2
2021/12/18 00:01:27;;;;;;;18.60;13.33;;;9.20;57.90;;;;;;5099236;28;20516;-54
2021/12/18 00:03:53;;;;;;;17.63;13.20;;;9.30;57.80;;;;;;5089975;28;20466;-53
2021/12/18 00:06:19;;;;;;;17.73;13.47;;;9.30;57.60;;;;;;5084395;28;20203;-54
2021/12/18 00:08:46;;;;;;;15.10;12.63;;;9.40;57.40;;;;;;5086281;28;20520;-53
2021/12/18 00:11:12;;;;;;;16.87;12.80;;;9.40;57.10;;;;;;5084382;28;20788;-52
2021/12/18 00:13:37;;;;;;;17.70;12.83;;;9.50;56.80;;;;;;5099855;28;20424;-53
2021/12/18 00:16:04;;;;;;;17.07;12.20;;;9.50;56.70;;;;;;5097743;28;20837;-54
2021/12/18 00:18:30;;;;;;;15.57;12.20;;;9.50;56.70;;;;;;5094757;28;20234;-54
2021/12/18 00:20:58;;;;;;;15.93;12.93;;;9.60;56.70;;;;;;5089506;28;21007;-54
2021/12/18 00:23:25;;;;;;;18.27;13.33;;;9.70;56.60;;;;;;5082229;28;20539;-53
2021/12/18 00:25:51;;;;;;;17.33;13.30;;;9.70;56.70;;;;;;5083334;28;20794;-52
2021/12/18 00:28:17;;;;;;;17.37;14.00;;;9.70;56.60;;;;;;5088258;28;20459;-54
2021/12/18 00:30:43;;;;;;;17.80;13.30;;;9.70;56.40;;;;;;5085857;28;20546;-53
2021/12/18 00:33:09;;;;;;;17.40;13.60;;;9.80;56.50;;;;;;5089740;28;20191;-53
2021/12/18 00:35:35;;;;;;;17.47;13.20;;;9.80;56.30;;;;;;5090051;28;20459;-53
2021/12/18 00:38:02;;;;;;;15.70;12.17;;;9.70;56.20;;;;;;5090542;28;20430;-53
2021/12/18 00:40:31;;;;;;;17.40;13.80;;;9.50;56.60;;;;;;5090859;28;20302;-54
2021/12/18 00:43:01;;;;;;;18.47;14.50;;;9.50;56.90;;;;;;5090462;28;20516;-54
2021/12/18 00:45:29;;;;;;;16.13;12.90;;;9.70;56.30;;;;;;5090415;28;20439;-54
2021/12/18 00:47:56;;;;;;;18.13;13.30;;;9.80;56.00;;;;;;5089214;28;20425;-53
2021/12/18 00:50:30;;;;;;;16.03;13.07;;;9.90;55.80;;;;;;5086133;28;20436;-54
2021/12/18 00:52:56;;;;;;;16.50;12.93;;;9.90;55.60;;;;;;5087471;28;20541;-54
2021/12/18 00:55:22;;;;;;;18.17;13.93;;;9.80;55.70;;;;;;5087273;28;20491;-54
2021/12/18 00:57:49;;;;;;;18.93;14.63;;;9.90;55.80;;;;;;5091876;28;20978;-55
2021/12/18 01:00:22;;;;;;;18.43;13.83;;;9.80;56.00;;;;;;5089788;28;20847;-52
2021/12/18 01:02:51;;;;;;;19.00;13.67;;;9.80;56.00;;;;;;5086647;28;20464;-54
2021/12/18 01:05:17;;;;;;;20.70;15.50;;;9.60;56.30;;;;;;5084822;28;20433;-52
2021/12/18 01:07:42;;;;;;;18.90;14.40;;;9.70;56.30;;;;;;5079770;28;20425;-52
2021/12/18 01:10:28;;;;;;;19.70;13.77;;;9.60;56.30;;;;;;5086541;28;20262;-53
2021/12/18 01:12:56;;;;;;;23.30;14.33;;;9.50;56.40;;;;;;5087751;28;20251;-54
2021/12/18 01:23:16;;;;;;;20.53;14.50;;;9.20;57.40;;;;;;5086924;28;20520;-51
2021/12/18 01:25:43;;;;;;;18.87;14.23;;;9.30;57.20;;;;;;5083269;28;20963;-55
2021/12/18 01:28:09;;;;;;;18.77;13.80;;;9.20;57.20;;;;;;5095485;28;20436;-52
2021/12/18 01:30:35;;;;;;;21.03;14.93;;;9.30;57.10;;;;;;5089055;28;20426;-53
2021/12/18 01:33:00;;;;;;;18.80;14.37;;;9.50;56.90;;;;;;5089150;28;20223;-51
2021/12/18 01:35:26;;;;;;;18.70;14.20;;;9.60;56.70;;;;;;5084690;28;20472;-53
2021/12/18 01:37:52;;;;;;;21.90;15.30;;;9.50;56.70;;;;;;5086310;28;20215;-52
2021/12/18 01:40:21;;;;;;;20.90;15.20;;;9.50;56.80;;;;;;5081481;28;20211;-49
2021/12/18 01:43:39;;;;;;;18.90;14.40;;;9.50;56.60;;;;;;5089509;28;20195;-52
2021/12/18 01:46:03;;;;;;;20.30;15.83;;;9.50;56.60;;;;;;5086773;28;20449;-53
2021/12/18 01:51:21;;;;;;;20.10;14.70;;;9.60;56.60;;;;;;5089432;28;20945;-51
2021/12/18 01:53:56;;;;;;;20.80;14.80;;;9.60;56.40;;;;;;5095585;28;20428;-51
2021/12/18 01:56:23;;;;;;;18.23;14.50;;;9.50;56.50;;;;;;5082937;28;20437;-53
2021/12/18 01:58:49;;;;;;;21.33;14.50;;;9.20;57.20;;;;;;5086812;28;20430;-52
2021/12/18 02:01:16;;;;;;;18.57;13.20;;;9.10;57.60;;;;;;5096881;28;20488;-53
2021/12/18 02:03:42;;;;;;;21.97;14.73;;;9.20;57.60;;;;;;5093017;28;20278;-49
2021/12/18 02:06:08;;;;;;;20.70;14.10;;;9.30;57.30;;;;;;5090130;28;20893;-53
2021/12/18 02:08:36;;;;;;;18.50;13.63;;;9.50;56.80;;;;;;5091558;28;20433;-53
2021/12/18 02:19:58;;;;;;;16.40;13.00;;;9.50;56.40;;;;;;5080319;28;20479;-50
2021/12/18 02:22:26;;;;;;;17.23;12.30;;;9.00;57.60;;;;;;5088917;28;20536;-52
2021/12/18 02:24:52;;;;;;;19.97;13.50;;;8.80;57.80;;;;;;5091574;28;20935;-52
2021/12/18 02:27:18;;;;;;;20.23;15.67;;;9.00;58.00;;;;;;5088630;28;20472;-53
2021/12/18 02:29:44;;;;;;;20.80;13.23;;;9.10;57.80;;;;;;5088467;28;20270;-53
2021/12/18 02:32:11;;;;;;;20.20;14.50;;;9.30;57.50;;;;;;5088643;28;20195;-54
2021/12/18 02:34:39;;;;;;;19.70;14.10;;;9.40;57.10;;;;;;5087436;28;20441;-53
2021/12/18 02:37:07;;;;;;;18.70;13.80;;;9.40;56.90;;;;;;5093043;28;20472;-54
2021/12/18 02:42:09;;;;;;;20.23;14.57;;;8.90;57.90;;;;;;5092472;28;20583;-54
2021/12/18 02:44:39;;;;;;;20.90;14.60;;;9.00;58.00;;;;;;5088256;28;20445;-51
2021/12/18 02:47:05;;;;;;;21.37;12.70;;;9.00;58.30;;;;;;5088639;28;20429;-50
2021/12/18 02:49:31;;;;;;;20.00;13.70;;;8.90;57.90;;;;;;5083496;28;20480;-54
2021/12/18 02:51:57;;;;;;;19.13;13.10;;;9.00;58.30;;;;;;5084548;28;20914;-53
2021/12/18 02:54:22;;;;;;;20.70;14.57;;;9.10;58.20;;;;;;5093286;28;20187;-52
2021/12/18 02:56:48;;;;;;;21.47;14.57;;;9.10;58.10;;;;;;5095476;28;20653;-51
2021/12/18 02:59:16;;;;;;;18.00;13.60;;;9.00;58.00;;;;;;5091766;28;20215;-52
2021/12/18 03:01:41;;;;;;;19.53;13.33;;;9.00;58.20;;;;;;5091531;28;20223;-50
2021/12/18 03:04:23;;;;;;;18.40;13.40;;;8.80;58.00;;;;;;5086886;28;20429;-49
2021/12/18 03:06:54;;;;;;;19.30;14.17;;;8.70;58.30;;;;;;5092122;28;20209;-51
2021/12/18 03:25:16;;;;;;;20.60;13.13;;;8.60;59.10;;;;;;5086231;28;20932;-53
2021/12/18 03:27:42;;;;;;;19.57;14.37;;;8.70;58.70;;;;;;5092662;28;20240;-52
2021/12/18 03:30:08;;;;;;;22.30;13.57;;;8.60;58.60;;;;;;5092653;28;20437;-51
2021/12/18 03:32:33;;;;;;;18.10;12.57;;;8.30;59.40;;;;;;5093156;28;20264;-53
2021/12/18 03:34:59;;;;;;;17.07;10.97;;;8.20;59.40;;;;;;5092387;28;20433;-51
2021/12/18 03:37:25;;;;;;;18.40;11.27;;;7.90;60.40;;;;;;5086884;28;20278;-51
2021/12/18 03:39:50;;;;;;;17.57;12.00;;;7.90;60.80;;;;;;5091038;28;20914;-51
2021/12/18 03:42:16;;;;;;;18.40;12.30;;;7.70;61.30;;;;;;5097263;28;20186;-54
2021/12/18 03:44:42;;;;;;;18.63;11.90;;;7.80;61.40;;;;;;5091583;28;20522;-52
2021/12/18 03:47:08;;;;;;;19.70;11.70;;;7.90;61.10;;;;;;5095821;28;20190;-52
2021/12/18 03:49:34;;;;;;;15.93;10.63;;;7.90;61.40;;;;;;5095417;28;20223;-51
2021/12/18 03:51:59;;;;;;;15.33;11.63;;;8.00;61.10;;;;;;5090959;28;20449;-52
2021/12/18 03:54:25;;;;;;;15.60;10.83;;;7.80;61.00;;;;;;5092257;28;20782;-52
2021/12/18 03:56:51;;;;;;;15.20;11.40;;;7.80;61.60;;;;;;5096300;28;20545;-53
2021/12/18 03:59:17;;;;;;;17.67;11.13;;;7.40;61.90;;;;;;5091198;28;20202;-52
2021/12/18 04:01:43;;;;;;;16.30;11.63;;;7.20;63.40;;;;;;5097967;28;20697;-51
2021/12/18 04:04:08;;;;;;;16.20;10.93;;;7.20;63.90;;;;;;5089755;28;20256;-51
2021/12/18 04:06:37;;;;;;;17.53;11.27;;;7.10;63.90;;;;;;5092906;28;20597;-55
2021/12/18 04:09:03;;;;;;;16.37;10.03;;;7.20;64.10;;;;;;5091796;28;20233;-55
2021/12/18 04:11:28;;;;;;;18.00;11.10;;;7.10;63.60;;;;;;5084966;28;20456;-55
2021/12/18 04:13:55;;;;;;;16.97;11.10;;;6.80;64.60;;;;;;5091295;28;20195;-53
2021/12/18 04:16:21;;;;;;;14.77;10.20;;;6.80;65.20;;;;;;5090630;28;20213;-51
2021/12/18 04:18:46;;;;;;;15.87;9.50;;;6.80;65.70;;;;;;5098150;28;20504;-52
2021/12/18 04:21:12;;;;;;;15.33;10.00;;;6.50;65.80;;;;;;5090344;28;20524;-53
2021/12/18 04:23:38;;;;;;;16.43;10.20;;;6.60;67.30;;;;;;5089770;28;20194;-52
2021/12/18 04:26:03;;;;;;;14.63;9.63;;;6.80;66.80;;;;;;5090819;28;20191;-51
2021/12/18 04:28:29;;;;;;;15.73;10.20;;;6.90;65.80;;;;;;5085843;28;20667;-54
2021/12/18 04:30:55;;;;;;;15.23;10.37;;;7.20;65.20;;;;;;5087948;28;20282;-51
2021/12/18 04:33:21;;;;;;;14.60;10.00;;;7.50;63.70;;;;;;5088041;28;20195;-53
2021/12/18 04:35:47;;;;;;;16.17;9.77;;;7.80;63.10;;;;;;5090118;28;20718;-55
2021/12/18 04:38:13;;;;;;;13.50;9.87;;;7.90;61.70;;;;;;5091490;28;20513;-54
2021/12/18 04:40:40;;;;;;;14.60;9.47;;;7.70;61.90;;;;;;5088450;28;20977;-54
2021/12/18 04:43:06;;;;;;;15.93;10.33;;;7.50;62.60;;;;;;5084305;28;20202;-54
2021/12/18 04:45:32;;;;;;;13.97;9.33;;;7.80;62.80;;;;;;5088509;28;20437;-54
2021/12/18 04:47:58;;;;;;;17.20;10.03;;;8.00;61.90;;;;;;5089765;28;20202;-54
2021/12/18 04:50:24;;;;;;;16.13;10.77;;;8.00;61.00;;;;;;5089673;28;20422;-55
2021/12/18 04:52:50;;;;;;;18.17;10.10;;;7.70;61.90;;;;;;5090882;28;20439;-54
2021/12/18 04:55:17;;;;;;;13.57;8.47;;;7.70;62.60;;;;;;5089459;28;20440;-55
2021/12/18 04:57:42;;;;;;;13.60;8.87;;;7.60;62.50;;;;;;5094000;28;20820;-52
2021/12/18 05:00:11;;;;;;;11.73;8.90;;;7.10;62.70;;;;;;5086442;28;20441;-54
2021/12/18 05:02:41;;;;;;;12.80;7.97;;;7.20;64.50;;;;;;5090225;28;20191;-54
2021/12/18 05:05:09;;;;;;;14.70;9.07;;;7.60;63.30;;;;;;5079834;28;20991;-54
2021/12/18 05:07:34;;;;;;;11.80;8.80;;;7.80;61.90;;;;;;5084528;28;20518;-54
2021/12/18 05:10:01;;;;;;;11.90;7.90;;;7.70;61.40;;;;;;5088817;28;20529;-54
2021/12/18 05:12:26;;;;;;;12.83;7.07;;;7.40;62.00;;;;;;5084845;28;20221;-51
2021/12/18 05:14:52;;;;;;;10.27;7.60;;;7.50;62.50;;;;;;5088679;28;20433;-54
2021/12/18 05:17:18;;;;;;;11.47;7.97;;;7.50;61.40;;;;;;5080694;28;20564;-54
2021/12/18 05:19:43;;;;;;;9.57;6.80;;;7.30;61.90;;;;;;5081164;28;20310;-54
2021/12/18 05:22:09;;;;;;;8.80;6.87;;;7.20;62.60;;;;;;5089672;28;20249;-53
2021/12/18 05:24:34;;;;;;;10.77;8.00;;;7.20;63.10;;;;;;5087815;28;20206;-53
2021/12/18 05:27:00;;;;;;;9.50;7.10;;;7.40;62.50;;;;;;5090153;28;20923;-52
2021/12/18 05:29:26;;;;;;;13.50;7.90;;;7.50;61.80;;;;;;5087566;28;20222;-54
2021/12/18 05:31:52;;;;;;;10.77;7.80;;;7.60;61.50;;;;;;5081903;28;20195;-53
2021/12/18 05:34:32;;;;;;;11.77;7.57;;;7.60;61.10;;;;;;5093271;28;20286;-53
2021/12/18 05:39:25;;;;;;;10.33;7.40;;;7.50;61.40;;;;;;5086950;28;20464;-56
2021/12/18 05:41:51;;;;;;;13.63;8.10;;;7.50;61.50;;;;;;5080781;28;20277;-54
2021/12/18 05:44:19;;;;;;;11.30;7.70;;;7.70;61.20;;;;;;5085453;28;20793;-52
2021/12/18 05:46:46;;;;;;;12.50;7.73;;;7.50;60.40;;;;;;5081937;28;21051;-52
2021/12/18 05:49:12;;;;;;;11.77;8.83;;;7.60;61.40;;;;;;5090807;28;20508;-52
2021/12/18 05:51:38;;;;;;;10.30;7.40;;;7.70;60.40;;;;;;5089898;28;20421;-54
2021/12/18 05:54:05;;;;;;;11.87;7.07;;;7.80;60.30;;;;;;5086210;28;20428;-52
2021/12/18 05:56:31;;;;;;;9.57;6.90;;;7.80;60.30;;;;;;5092984;28;20460;-52
2021/12/18 05:58:58;;;;;;;10.80;7.53;;;7.80;60.10;;;;;;5089945;28;20425;-51
2021/12/18 06:01:24;;;;;;;10.80;7.37;;;7.60;60.20;;;;;;5090620;28;20485;-53
2021/12/18 06:03:50;;;;;;;12.27;9.07;;;7.60;60.50;;;;;;5092371;28;20444;-52
2021/12/18 06:06:15;;;;;;;13.50;7.50;;;7.60;60.60;;;;;;5092333;28;20199;-52
2021/12/18 06:08:42;;;;;;;8.97;7.27;;;7.70;60.40;;;;;;5091655;28;20187;-52
2021/12/18 06:11:13;;;;;;;13.73;7.50;;;8.00;59.90;;;;;;5096240;28;20198;-52
2021/12/18 06:13:40;;;;;;;9.53;6.80;;;8.20;59.50;;;;;;5104886;28;20444;-52
2021/12/18 06:16:07;;;;;;;11.03;7.20;;;8.50;62.80;;;;;;5095455;28;20432;-54
2021/12/18 06:18:37;;;;;;;17.63;6.27;;;8.90;61.30;;;;;;5100883;28;20578;-52
2021/12/18 06:21:03;;;;;;;11.13;7.50;;;9.20;61.50;;;;;;5085717;28;20521;-52
2021/12/18 06:23:30;;;;;;;9.37;6.30;;;9.60;60.00;;;;;;5091746;28;20444;-53
2021/12/18 06:25:56;;;;;;;10.20;7.70;;;9.80;58.40;;;;;;5090256;28;20429;-52
2021/12/18 06:28:22;;;;;;;8.60;6.27;;;10.00;56.50;;;;;;5090957;28;20540;-51
2021/12/18 06:30:48;;;;;;;9.30;6.63;;;10.10;56.00;;;;;;5094016;28;20860;-51
2021/12/18 06:33:15;;;;;;;8.93;7.03;;;10.20;55.60;;;;;;5090985;28;20236;-51
2021/12/18 06:35:40;;;;;;;7.70;6.37;;;10.30;55.30;;;;;;5091681;28;20787;-51
2021/12/18 06:38:06;;;;;;;9.50;6.70;;;10.40;54.70;;;;;;5093157;28;20488;-51
2021/12/18 06:40:32;;;;;;;9.37;6.80;;;10.40;54.60;;;;;;5092304;28;20241;-52
2021/12/18 06:42:57;;;;;;;8.80;6.60;;;10.50;54.20;;;;;;5093169;28;20213;-52
2021/12/18 06:45:24;;;;;;;7.57;5.83;;;10.60;54.20;;;;;;5092216;28;20516;-51
2021/12/18 06:47:49;;;;;;;9.07;6.80;;;10.70;54.00;;;;;;5093176;28;20627;-51
2021/12/18 06:50:15;;;;;;;8.33;6.60;;;10.90;53.60;;;;;;5092501;28;20468;-51
2021/12/18 06:52:41;;;;;;;10.73;6.97;;;11.00;53.20;;;;;;5090004;28;20198;-52
2021/12/18 06:55:07;;;;;;;9.70;7.50;;;11.00;52.90;;;;;;5092188;28;20429;-51
2021/12/18 06:57:33;;;;;;;10.23;6.73;;;11.10;52.30;;;;;;5093020;28;20650;-52
2021/12/18 06:59:59;;;;;;;9.37;6.90;;;11.00;51.70;;;;;;5089233;28;20503;-51
2021/12/18 07:02:24;;;;;;;8.33;6.67;;;11.00;52.30;;;;;;5104751;27;20217;-52
2021/12/18 07:04:51;;;;;;;10.27;6.93;;;11.10;52.50;;;;;;5089177;28;20206;-52
2021/12/18 07:07:17;;;;;;;8.67;7.50;;;11.30;52.40;;;;;;5093227;28;20214;-53
2021/12/18 07:09:43;;;;;;;9.80;7.20;;;11.40;51.80;;;;;;5093516;28;20426;-51
2021/12/18 07:12:10;;;;;;;8.73;7.07;;;11.30;50.90;;;;;;5089722;28;21346;-51
2021/12/18 07:14:37;;;;;;;9.43;6.60;;;11.30;51.50;;;;;;5091043;28;20274;-49
2021/12/18 07:17:03;;;;;;;9.70;7.10;;;11.30;51.40;;;;;;5091757;28;20941;-49
2021/12/18 07:19:29;;;;;;;7.93;7.13;;;11.30;50.90;;;;;;5090855;28;20556;-53
2021/12/18 07:21:55;;;;;;;10.33;6.43;;;11.30;51.20;;;;;;5088022;28;20641;-58
2021/12/18 07:24:21;;;;;;;9.07;7.27;;;11.40;51.40;;;;;;5090636;28;20195;-54
2021/12/18 07:26:47;;;;;;;10.30;7.60;;;11.50;51.40;;;;;;5079027;28;20445;-53
2021/12/18 07:29:13;;;;;;;9.50;7.13;;;11.60;51.20;;;;;;5091401;28;20232;-54
2021/12/18 07:31:38;;;;;;;8.97;7.30;;;11.60;50.60;;;;;;5087084;28;20510;-50
2021/12/18 07:34:04;;;;;;;9.00;6.80;;;11.60;50.60;;;;;;5089811;28;20550;-53
2021/12/18 07:36:30;;;;;;;10.23;7.33;;;11.70;50.60;;;;;;5086549;28;20717;-55
2021/12/18 07:38:56;;;;;;;8.03;6.80;;;11.70;50.50;;;;;;5088619;28;20233;-52
2021/12/18 07:41:22;;;;;;;9.77;7.90;;;11.70;50.00;;;;;;5090549;28;20485;-54
2021/12/18 07:43:47;;;;;;;9.53;7.40;;;11.50;50.00;;;;;;5085233;28;20200;-52
2021/12/18 07:46:13;;;;;;;11.63;9.80;;;11.30;50.20;;;;;;5087434;28;20191;-54
2021/12/18 07:48:39;;;;;;;11.27;7.90;;;11.10;50.50;;;;;;5088172;28;20196;-51
2021/12/18 07:51:05;;;;;;;9.73;6.97;;;10.80;51.20;;;;;;5082800;28;20317;-51
2021/12/18 07:53:30;;;;;;;11.13;7.50;;;10.60;51.90;;;;;;5082060;28;20280;-52
2021/12/18 07:55:56;;;;;;;11.70;9.43;;;10.60;52.30;;;;;;5090071;28;20801;-54
2021/12/18 07:58:22;;;;;;;17.23;10.33;;;10.50;52.10;;;;;;5091022;28;20262;-51
2021/12/18 08:00:47;;;;;;;19.33;11.57;;;10.40;52.30;;;;;;5089306;28;20229;-55
2021/12/18 08:03:13;;;;;;;17.73;12.43;;;10.30;52.60;;;;;;5090950;28;20305;-55
2021/12/18 08:05:39;;;;;;;16.50;11.17;;;10.20;52.60;;;;;;5090149;28;20693;-52
2021/12/18 08:08:05;;;;;;;15.20;9.93;;;10.00;53.20;;;;;;5091181;28;20202;-55
2021/12/18 08:10:30;;;;;;;13.97;9.57;;;9.90;54.30;;;;;;5088478;28;20442;-55
2021/12/18 08:12:56;;;;;;;10.20;7.50;;;9.70;54.70;;;;;;5089967;28;20249;-52
2021/12/18 08:15:22;;;;;;;13.97;10.17;;;9.60;54.90;;;;;;5088284;28;20184;-51
2021/12/18 08:17:47;;;;;;;15.30;10.60;;;9.50;55.50;;;;;;5088642;28;20202;-54
2021/12/18 08:20:13;;;;;;;13.63;9.70;;;9.60;55.50;;;;;;5087077;28;20288;-55
2021/12/18 08:22:38;;;;;;;12.80;9.37;;;9.60;55.60;;;;;;5090456;28;20187;-55
2021/12/18 08:25:05;;;;;;;12.77;8.77;;;9.60;56.10;;;;;;5089769;28;20191;-54
2021/12/18 08:27:31;;;;;;;17.60;13.30;;;9.80;55.70;;;;;;5091585;28;20227;-53
2021/12/18 08:29:57;;;;;;;14.73;11.13;;;9.80;55.20;;;;;;5089265;28;20461;-52
2021/12/18 08:32:23;;;;;;;17.40;11.47;;;9.90;55.10;;;;;;5088794;28;20669;-55
2021/12/18 08:34:48;;;;;;;14.30;11.17;;;9.90;55.10;;;;;;5093548;28;20447;-52
2021/12/18 08:37:14;;;;;;;15.77;12.03;;;9.90;55.20;;;;;;5088852;28;20227;-52
2021/12/18 08:39:40;;;;;;;14.97;10.93;;;9.90;55.40;;;;;;5084624;28;20532;-54
2021/12/18 08:42:06;;;;;;;12.10;8.43;;;10.10;55.30;;;;;;5088625;28;20314;-52
2021/12/18 08:44:33;;;;;;;8.90;6.80;;;10.30;54.90;;;;;;5087608;28;20316;-51
2021/12/18 08:46:59;;;;;;;11.47;7.90;;;10.50;54.30;;;;;;5088460;28;20445;-52
2021/12/18 08:49:25;;;;;;;12.60;8.80;;;10.50;53.80;;;;;;5090852;28;20947;-54
2021/12/18 08:51:52;;;;;;;12.30;9.17;;;10.70;53.50;;;;;;5088992;28;20863;-53
2021/12/18 08:54:17;;;;;;;16.60;10.80;;;10.60;52.90;;;;;;5085163;28;20430;-54
2021/12/18 08:56:43;;;;;;;15.03;10.00;;;10.60;52.80;;;;;;5079986;28;20928;-54
2021/12/18 08:59:08;;;;;;;14.30;9.23;;;10.60;52.70;;;;;;5084808;28;20204;-51
2021/12/18 09:01:34;;;;;;;13.13;9.27;;;10.60;53.00;;;;;;5085170;28;20338;-54
2021/12/18 09:04:00;;;;;;;12.60;8.57;;;10.70;53.60;;;;;;5089775;28;20206;-53
2021/12/18 09:06:26;;;;;;;10.37;7.77;;;10.70;53.10;;;;;;5088341;28;20214;-54
2021/12/18 09:08:52;;;;;;;9.63;7.40;;;10.90;52.90;;;;;;5083849;28;20195;-53
2021/12/18 09:11:19;;;;;;;13.70;8.80;;;10.70;52.60;;;;;;5082068;28;20434;-55
2021/12/18 09:13:44;;;;;;;13.33;7.87;;;10.60;53.10;;;;;;5082654;28;20434;-51
2021/12/18 09:16:10;;;;;;;12.43;7.87;;;10.80;53.00;;;;;;5079396;28;20439;-53
2021/12/18 09:18:36;;;;;;;12.27;7.90;;;10.90;52.60;;;;;;5087558;28;20235;-52
2021/12/18 09:21:02;;;;;;;12.60;8.00;;;10.90;52.40;;;;;;5080714;28;20522;-54
2021/12/18 09:23:28;;;;;;;10.60;8.33;;;10.90;52.70;;;;;;5080400;28;20191;-53
2021/12/18 09:25:54;;;;;;;12.30;8.43;;;10.80;52.80;;;;;;5086648;28;20768;-51
2021/12/18 09:28:19;;;;;;;10.83;8.37;;;10.70;52.70;;;;;;5084518;28;20199;-54
2021/12/18 09:30:46;;;;;;;10.93;7.63;;;10.70;53.30;;;;;;5082610;28;20645;-54
2021/12/18 09:33:13;;;;;;;10.73;7.97;;;10.60;52.90;;;;;;5088084;28;20676;-55
2021/12/18 09:35:40;;;;;;;10.73;7.73;;;10.50;53.10;;;;;;5089946;28;20441;-51
2021/12/18 09:38:06;;;;;;;13.77;8.90;;;10.50;53.20;;;;;;5087858;28;20433;-52
2021/12/18 09:40:33;;;;;;;12.50;8.60;;;10.50;52.90;;;;;;5084502;28;20547;-52
2021/12/18 09:42:59;;;;;;;11.07;8.00;;;10.30;52.70;;;;;;5082108;28;20525;-54
2021/12/18 09:45:25;;;;;;;11.27;8.00;;;10.20;53.10;;;;;;5088585;28;20465;-54
2021/12/18 09:47:51;;;;;;;11.47;8.03;;;10.10;53.00;;;;;;5086125;28;20278;-54
2021/12/18 09:50:20;;;;;;;10.40;7.50;;;9.60;54.40;;;;;;5078501;28;20446;-52
2021/12/18 09:52:46;;;;;;;11.77;8.43;;;9.60;55.00;;;;;;5086515;28;20441;-54
2021/12/18 09:55:12;;;;;;;11.30;8.73;;;9.30;55.40;;;;;;5086171;28;20429;-55
2021/12/18 09:57:39;;;;;;;13.13;8.17;;;9.50;55.50;;;;;;5085188;28;20445;-54
2021/12/18 10:00:14;;;;;;;10.27;7.50;;;9.60;55.80;;;;;;5084425;28;20512;-53
2021/12/18 10:02:40;;;;;;;11.17;8.30;;;10.00;54.60;;;;;;5080537;28;20620;-50
2021/12/18 10:05:17;;;;;;;13.10;8.10;;;10.10;53.60;;;;;;5081396;28;20433;-56
2021/12/18 10:07:43;;;;;;;11.20;7.70;;;10.00;53.70;;;;;;5084600;28;20425;-55
2021/12/18 10:10:10;;;;;;;11.90;8.10;;;9.60;54.90;;;;;;5084479;28;20445;-59
2021/12/18 10:12:35;;;;;;;13.30;9.50;;;8.80;56.60;;;;;;5081312;28;20579;-52
2021/12/18 10:15:03;;;;;;;11.30;8.30;;;9.00;57.70;;;;;;5075146;28;20433;-55
2021/12/18 10:17:35;;;;;;;11.07;7.77;;;9.50;56.70;;;;;;5081671;28;20214;-54
2021/12/18 10:20:09;;;;;;;10.50;7.13;;;9.70;55.90;;;;;;5082438;28;20481;-52
2021/12/18 10:22:36;;;;;;;8.93;6.40;;;10.00;54.60;;;;;;5081411;28;20963;-54
2021/12/18 10:25:07;;;;;;;10.50;7.57;;;10.30;53.60;;;;;;5084053;28;20544;-52
2021/12/18 10:27:33;;;;;;;10.20;7.67;;;10.00;53.40;;;;;;5076848;28;20465;-56
2021/12/18 10:30:09;;;;;;;8.53;6.30;;;10.00;53.90;;;;;;5084591;28;20483;-53
2021/12/18 10:32:34;;;;;;;10.23;7.07;;;9.90;54.60;;;;;;5081774;28;20433;-56
2021/12/18 10:35:00;;;;;;;12.07;8.43;;;9.80;54.30;;;;;;5085006;28;20448;-54
2021/12/18 10:37:30;;;;;;;9.40;7.60;;;9.40;55.70;;;;;;5081825;28;20188;-55
2021/12/18 10:40:09;;;;;;;10.63;7.53;;;9.60;55.80;;;;;;5084309;28;20190;-55
2021/12/18 10:42:40;;;;;;;7.53;6.50;;;10.00;54.10;;;;;;5085258;28;20436;-53
2021/12/18 10:45:14;;;;;;;9.60;6.37;;;9.90;54.50;;;;;;5078933;28;20443;-55
2021/12/18 10:47:43;;;;;;;10.20;7.03;;;9.80;54.30;;;;;;5084202;28;20468;-52
2021/12/18 10:50:27;;;;;;;9.27;7.77;;;9.90;54.60;;;;;;5078699;28;20445;-54
2021/12/18 10:53:06;;;;;;;12.33;7.73;;;9.90;54.60;;;;;;5075671;28;20475;-52
2021/12/18 10:55:36;;;;;;;10.43;7.00;;;10.20;53.10;;;;;;5081598;28;21115;-55
2021/12/18 10:58:04;;;;;;;9.63;6.70;;;10.40;52.40;;;;;;5089965;28;20453;-52
2021/12/18 11:00:55;;;;;;;11.20;7.70;;;10.60;52.20;;;;;;5082991;28;20529;-51
2021/12/18 11:03:38;;;;;;;10.07;6.97;;;10.70;51.80;;;;;;5085031;28;20442;-52
2021/12/18 11:06:23;;;;;;;12.00;6.60;;;10.50;52.00;;;;;;5085407;28;20936;-51
2021/12/18 11:08:56;;;;;;;8.50;6.53;;;10.20;52.70;;;;;;5087753;28;20437;-53
2021/12/18 11:14:01;;;;;;;10.77;7.80;;;10.30;51.80;;;;;;5088503;28;20448;-55
2021/12/18 11:16:28;;;;;;;10.23;7.50;;;9.70;53.40;;;;;;5090415;28;20430;-55
2021/12/18 11:18:58;;;;;;;11.10;7.20;;;9.50;54.10;;;;;;5088848;28;20556;-55
2021/12/18 11:21:25;;;;;;;8.40;6.80;;;9.40;54.90;;;;;;5089953;28;20485;-53
2021/12/18 11:23:55;;;;;;;10.67;7.87;;;9.60;54.90;;;;;;5089654;28;20433;-53
2021/12/18 11:26:23;;;;;;;7.43;5.90;;;10.00;53.40;;;;;;5087638;28;20582;-54
2021/12/18 11:28:51;;;;;;;10.27;6.57;;;10.10;53.60;;;;;;5085980;28;20510;-52
2021/12/18 11:31:18;;;;;;;9.40;6.50;;;10.50;53.30;;;;;;5090251;28;20426;-54
2021/12/18 11:33:44;;;;;;;9.43;7.07;;;10.80;52.60;;;;;;5088509;28;20445;-55
2021/12/18 11:36:13;;;;;;;9.83;7.30;;;10.70;51.30;;;;;;5090068;28;20429;-55
2021/12/18 11:38:41;;;;;;;7.93;7.10;;;10.40;51.70;;;;;;5085820;28;20434;-56
2021/12/18 11:41:17;;;;;;;8.73;6.80;;;10.20;52.10;;;;;;5081134;28;20481;-55
2021/12/18 11:43:46;;;;;;;10.80;8.07;;;10.10;52.70;;;;;;5085343;28;20436;-52
2021/12/18 11:46:34;;;;;;;8.87;7.17;;;9.80;53.00;;;;;;5079537;28;20433;-54
2021/12/18 11:49:04;;;;;;;9.80;7.47;;;9.30;54.50;;;;;;5088065;28;20459;-54
2021/12/18 11:51:30;;;;;;;10.87;8.27;;;8.90;55.50;;;;;;5081531;28;20442;-55
2021/12/18 11:53:57;;;;;;;9.83;7.33;;;9.00;55.60;;;;;;5082727;28;20445;-54
2021/12/18 11:56:24;;;;;;;10.03;7.50;;;9.10;55.50;;;;;;5088124;28;20447;-55
2021/12/18 11:58:51;;;;;;;11.70;8.10;;;9.40;55.30;;;;;;5089661;28;20504;-55
2021/12/18 12:01:26;;;;;;;12.20;9.13;;;9.10;55.00;;;;;;5088185;28;20492;-55
2021/12/18 12:03:52;;;;;;;12.40;8.17;;;8.70;55.80;;;;;;5087605;28;20434;-54
2021/12/18 12:06:20;;;;;;;12.13;8.07;;;8.50;56.50;;;;;;5090413;28;20472;-52
2021/12/18 12:08:50;;;;;;;10.73;8.30;;;8.50;56.80;;;;;;5091312;28;20206;-55
2021/12/18 12:11:26;;;;;;;12.00;8.37;;;8.70;56.60;;;;;;5088859;28;20495;-53
2021/12/18 12:14:27;;;;;;;13.30;9.10;;;8.60;56.90;;;;;;5091046;28;20429;-53
2021/12/18 12:16:58;;;;;;;10.17;7.07;;;8.50;57.10;;;;;;5089588;28;20452;-52
2021/12/18 12:19:45;;;;;;;13.03;9.50;;;8.40;57.50;;;;;;5089824;28;20498;-55
2021/12/18 12:22:36;;;;;;;12.00;9.27;;;8.50;57.00;;;;;;5089703;28;20489;-55
2021/12/18 12:25:05;;;;;;;13.90;9.77;;;8.20;57.50;;;;;;5087347;28;20472;-54
2021/12/18 12:27:38;;;;;;;12.63;9.97;;;8.30;57.90;;;;;;5087438;28;20464;-52
2021/12/18 12:30:10;;;;;;;12.53;9.10;;;8.60;57.60;;;;;;5086109;28;20448;-52
2021/12/18 12:32:37;;;;;;;11.10;8.47;;;8.30;57.20;;;;;;5087870;28;20834;-54
2021/12/18 12:35:05;;;;;;;13.30;8.10;;;8.40;57.80;;;;;;5097661;28;20952;-51
2021/12/18 12:37:42;;;;;;;11.60;8.80;;;8.70;57.50;;;;;;5088461;28;20777;-51
2021/12/18 12:40:12;;;;;;;14.27;9.77;;;8.60;56.50;;;;;;5089337;28;20437;-55
2021/12/18 12:42:39;;;;;;;12.63;8.30;;;8.60;57.00;;;;;;5087836;28;20461;-53
2021/12/18 12:45:12;;;;;;;11.30;8.40;;;9.20;58.80;;;;;;5087216;28;20437;-52
2021/12/18 12:47:38;;;;;;;9.70;7.50;;;9.90;57.90;;;;;;5085529;28;20509;-53
2021/12/18 12:50:13;;;;;;;11.40;8.60;;;10.10;54.50;;;;;;5087729;28;20437;-55
2021/12/18 12:52:51;;;;;;;13.80;8.93;;;10.50;54.50;;;;;;5090347;28;20461;-54
2021/12/18 12:55:19;;;;;;;9.73;7.17;;;10.30;52.80;;;;;;5089162;28;20429;-51
2021/12/18 12:57:57;;;;;;;9.63;7.23;;;10.30;53.60;;;;;;5085514;28;22395;-52
2021/12/18 13:00:26;;;;;;;11.90;8.93;;;10.30;52.90;;;;;;5088842;28;20803;-52
2021/12/18 13:02:55;;;;;;;9.50;7.40;;;10.10;52.40;;;;;;5088868;28;20528;-50
2021/12/18 13:05:23;;;;;;;10.93;8.33;;;9.60;54.10;;;;;;5087501;28;20601;-54
2021/12/18 13:07:57;;;;;;;10.00;7.80;;;9.40;55.40;;;;;;5087525;28;20818;-53
2021/12/18 13:10:35;;;;;;;8.63;7.53;;;9.60;55.40;;;;;;5087551;28;20535;-52
2021/12/18 13:13:11;;;;;;;12.43;8.10;;;9.80;54.70;;;;;;5085372;28;20445;-52
2021/12/18 13:15:53;;;;;;;9.17;7.63;;;10.30;53.50;;;;;;5088068;28;20441;-51
2021/12/18 13:18:22;;;;;;;9.10;7.40;;;10.60;52.70;;;;;;5081230;28;20502;-51
2021/12/18 13:20:55;;;;;;;11.13;7.90;;;10.90;52.20;;;;;;5085306;28;20472;-52
2021/12/18 13:23:23;;;;;;;10.63;8.17;;;10.80;51.70;;;;;;5087120;28;20441;-51
2021/12/18 13:25:54;;;;;;;10.73;8.47;;;11.00;51.90;;;;;;5081048;28;20437;-51
2021/12/18 13:28:22;;;;;;;10.60;7.53;;;11.10;51.40;;;;;;5086541;28;20497;-56